Flight Track Log - Related Links

Times and Time Zones

All times are in EDT time to prevent confusion due to time zone crossing. See the EGF3005 flight status page for this flight to view local times or setup timezone preferences in your user account.

Time Position Orientation Groundspeed Altitude Reporting Facility
EDT Latitude Longitude Course Direction KTS MPH feet Rate Location/Type
Sun 09:34:07 PM 42.0167 -87.9667 270° West 209 241 2,900  Level Chicago TRACON
Sun 09:35:01 PM 42.0667 -88.0000 334° Northwest 236 272 6,000 3,000 Climbing Chicago TRACON
Sun 09:36:00 PM 41.9667 -88.3066 270° West  Level FlightAware Approximate
Sun 09:36:01 PM 42.1167 -88.0500 323° Northwest 238 274 8,600  Level Chicago TRACON
Sun 09:37:00 PM 41.9667 -88.4422 270° West  Level FlightAware Approximate
Sun 09:37:04 PM 42.1233 -88.1553 275° West 272 313 9,800  Level Chicago Center
Sun 09:38:00 PM 41.9668 -88.5777 270° West  Level FlightAware Approximate
Sun 09:38:06 PM 42.1247 -88.2744 271° West 317 365 10,700  Level Chicago Center
Sun 09:39:00 PM 41.9667 -88.6980 270° West  Level FlightAware Approximate
Sun 09:39:08 PM 42.1183 -88.4075 266° West 354 407 11,600  Level Chicago Center
Sun 09:40:10 PM 42.1014 -88.5433 261° West 369 425 12,800 1,161 Climbing Chicago Center
Sun 09:41:12 PM 42.0853 -88.7119 263° West 383 441 14,000 1,065 Climbing Chicago Center
Sun 09:42:14 PM 42.1064 -88.8517 282° West 397 457 15,000 927 Climbing Chicago Center
Sun 09:43:15 PM 42.1281 -88.9975 281° West 396 456 15,900 927 Climbing Chicago Center
Sun 09:44:17 PM 42.1492 -89.1456 281° West 400 460 16,900 919 Climbing Chicago Center
Sun 09:45:19 PM 42.1733 -89.3164 281° West 399 459 17,800 919 Climbing Chicago Center
Sun 09:46:21 PM 42.1936 -89.4650 280° West 401 461 18,800 968 Climbing Chicago Center
Sun 09:47:23 PM 42.2158 -89.6192 281° West 415 478 19,800 968 Climbing Chicago Center
Sun 09:48:25 PM 42.2367 -89.7708 281° West 413 475 20,800 829 Climbing Chicago Center
Sun 09:49:26 PM 42.2561 -89.9194 280° West 417 480 21,500 585 Climbing Chicago Center
Sun 09:50:28 PM 42.2769 -90.0758 280° West 426 490 22,000 242 Climbing Chicago Center
Sun 09:51:30 PM 42.3025 -90.2694 280° West 440 506 22,000  Level Chicago Center
Sun 09:52:32 PM 42.3231 -90.4353 280° West 449 517 22,000  Level Chicago Center
Sun 09:53:34 PM 42.3436 -90.6008 280° West 444 511 22,000  Level Chicago Center
Sun 09:54:35 PM 42.3650 -90.7631 280° West 448 516 22,000  Level Chicago Center
Sun 09:55:37 PM 42.3850 -90.9278 279° West 448 516 22,000 -871 Level Chicago Center
Sun 09:56:39 PM 42.4058 -91.0914 280° West 445 512 20,200 -2,829 Descending Chicago Center
Sun 09:57:40 PM 42.4281 -91.2814 279° West 429 494 16,200 -3,512 Descending Chicago Center
Sun 09:58:42 PM 42.4450 -91.4306 279° West 409 471 13,000 -2,488 Descending Chicago Center
Sun 09:59:43 PM 42.4633 -91.5714 280° West 387 445 11,100 -1,463 Descending Chicago Center
Sun 10:00:45 PM 42.4775 -91.6997 279° West 355 409 10,000 -1,258 Descending Chicago Center
Sun 10:01:47 PM 42.4903 -91.8069 279° West 299 344 8,500 -1,561 Descending Chicago Center
Sun 10:02:48 PM 42.5019 -91.9083 279° West 285 328 6,800 -1,317 Descending Chicago Center
Sun 10:03:50 PM 42.5133 -92.0100 279° West 276 318 5,800 -976 Descending Chicago Center
Sun 10:04:51 PM 42.5239 -92.1125 278° West 275 316 4,800 -878 Descending Chicago Center
Sun 10:05:53 PM 42.5369 -92.2339 278° West 275 316 4,000 -1,016 Descending Chicago Center
Sun 10:06:55 PM 42.5608 -92.3150 292° West 253 291 2,700 -683 Descending Chicago Center
Sun 10:07:56 PM 42.5969 -92.3817 306° West 236 272 2,600 -488 Descending Chicago Center
Sun 10:08:58 PM 42.6014 -92.4319 277° West 189 217 1,700 -732 Descending Chicago Center
Sun 10:09:59 PM 42.5717 -92.4225 167° South 160 184 1,100 -341 Descending Chicago Center
Sun 10:11:01 PM 42.5542 -92.3839 122° Southeast 152 175 1,000 -97 Descending Chicago Center

Login

Don't have an account? Register now (free) for customized features, flight alerts, and more!